createdAt,value
2023-01-28T00:01:34.621Z,7.40
2023-01-28T00:04:02.488Z,8.00
2023-01-28T00:06:30.192Z,7.82
2023-01-28T00:08:58.006Z,7.78
2023-01-28T00:11:25.793Z,7.82
2023-01-28T00:13:55.694Z,7.78
2023-01-28T00:16:23.615Z,7.90
2023-01-28T00:18:51.816Z,8.13
2023-01-28T00:21:19.901Z,7.70
2023-01-28T00:23:52.843Z,8.05
2023-01-28T00:26:20.668Z,8.68
2023-01-28T00:28:48.993Z,7.93
2023-01-28T00:31:20.559Z,8.15
2023-01-28T00:33:50.782Z,9.10
2023-01-28T00:36:20.811Z,8.70
2023-01-28T00:38:51.626Z,8.35
2023-01-28T00:41:22.402Z,8.25
2023-01-28T00:43:50.859Z,8.20
2023-01-28T00:46:21.544Z,8.45
2023-01-28T00:48:50.008Z,8.38
2023-01-28T00:51:20.052Z,8.88
2023-01-28T00:53:48.399Z,8.07
2023-01-28T00:56:17.902Z,8.18
2023-01-28T00:58:46.066Z,7.95
2023-01-28T01:01:16.741Z,8.85
2023-01-28T01:03:45.995Z,8.98
2023-01-28T01:06:17.392Z,9.30
2023-01-28T01:08:50.088Z,9.18
2023-01-28T01:11:18.849Z,7.68
2023-01-28T01:13:50.678Z,7.65
2023-01-28T01:16:18.391Z,7.93
2023-01-28T01:18:47.549Z,7.25
2023-01-28T01:21:17.647Z,7.75
2023-01-28T01:23:45.772Z,7.10
2023-01-28T01:26:14.622Z,7.32
2023-01-28T01:28:42.710Z,7.60
2023-01-28T01:31:14.755Z,7.13
2023-01-28T01:33:43.090Z,8.40
2023-01-28T01:36:13.766Z,7.57
2023-01-28T01:38:42.505Z,7.72
2023-01-28T01:41:24.690Z,7.80
2023-01-28T01:43:54.865Z,7.30
2023-01-28T01:46:27.274Z,8.15
2023-01-28T01:48:58.448Z,8.10
2023-01-28T01:51:32.446Z,7.65
2023-01-28T01:54:01.302Z,8.45
2023-01-28T01:56:34.362Z,7.82
2023-01-28T01:59:03.399Z,8.75
2023-01-28T02:01:32.603Z,7.93
2023-01-28T02:04:07.148Z,8.90
2023-01-28T02:06:37.831Z,9.82
2023-01-28T02:09:09.113Z,9.35
2023-01-28T02:11:37.814Z,9.55
2023-01-28T02:14:07.823Z,9.02
2023-01-28T02:16:35.780Z,9.52
2023-01-28T02:19:03.623Z,8.75
2023-01-28T02:22:02.510Z,9.60
2023-01-28T02:24:56.735Z,10.25
2023-01-28T02:27:32.451Z,9.43
2023-01-28T02:30:08.795Z,9.35
2023-01-28T02:32:44.784Z,10.05
2023-01-28T02:35:17.725Z,9.35
2023-01-28T02:37:48.839Z,9.65
2023-01-28T02:40:23.669Z,9.85
2023-01-28T02:42:51.502Z,8.85
2023-01-28T02:45:23.925Z,9.32
2023-01-28T02:47:57.665Z,10.45
2023-01-28T02:50:32.613Z,9.80
2023-01-28T02:53:35.973Z,9.65
2023-01-28T02:56:10.025Z,10.00
2023-01-28T02:58:43.796Z,10.45
2023-01-28T03:01:20.312Z,9.90
2023-01-28T03:04:00.492Z,10.30
2023-01-28T03:06:34.472Z,10.43
2023-01-28T03:09:24.541Z,10.18
2023-01-28T03:12:13.754Z,10.50
2023-01-28T03:15:00.456Z,10.70
2023-01-28T03:17:52.677Z,12.55
2023-01-28T03:20:40.307Z,11.05
2023-01-28T03:23:30.360Z,12.98
2023-01-28T03:26:20.145Z,10.80
2023-01-28T03:29:08.013Z,11.95
2023-01-28T03:31:55.052Z,12.60
2023-01-28T03:34:41.654Z,12.00
2023-01-28T03:37:10.163Z,13.23
2023-01-28T03:39:38.959Z,13.40
2023-01-28T03:42:09.484Z,12.70
2023-01-28T03:44:52.135Z,12.10
2023-01-28T03:49:51.222Z,13.10
2023-01-28T03:52:21.004Z,12.50
2023-01-28T03:54:49.479Z,14.07
2023-01-28T03:57:18.169Z,18.02
2023-01-28T03:59:45.912Z,15.52
2023-01-28T04:02:13.840Z,15.85
2023-01-28T04:04:42.337Z,14.70
2023-01-28T04:07:15.434Z,15.27
2023-01-28T04:09:44.106Z,16.38
2023-01-28T04:12:11.970Z,15.50
2023-01-28T04:14:40.656Z,14.18
2023-01-28T04:17:10.592Z,15.30
2023-01-28T04:19:38.582Z,17.70
2023-01-28T04:22:08.404Z,16.23
2023-01-28T04:24:37.500Z,17.95
2023-01-28T04:27:05.337Z,17.42
2023-01-28T04:29:33.037Z,16.60
2023-01-28T04:32:00.690Z,20.52
2023-01-28T04:34:28.361Z,17.50
2023-01-28T04:36:56.089Z,17.10
2023-01-28T04:39:23.854Z,18.27
2023-01-28T04:41:52.962Z,18.17
2023-01-28T04:44:20.686Z,18.50
2023-01-28T04:46:48.426Z,19.15
2023-01-28T04:49:16.096Z,19.38
2023-01-28T04:51:43.776Z,20.05
2023-01-28T04:54:11.483Z,18.10
2023-01-28T04:56:39.231Z,17.85
2023-01-28T04:59:08.379Z,19.10
2023-01-28T05:01:36.100Z,19.83
2023-01-28T05:04:05.706Z,20.05
2023-01-28T05:06:33.524Z,19.30
2023-01-28T05:09:01.697Z,19.95
2023-01-28T05:11:29.435Z,20.48
2023-01-28T05:13:57.135Z,20.67
2023-01-28T05:16:26.398Z,20.63
2023-01-28T05:18:54.106Z,19.85
2023-01-28T05:21:21.860Z,20.27
2023-01-28T05:23:49.559Z,20.83
2023-01-28T05:26:17.192Z,20.05
2023-01-28T05:28:44.875Z,21.25
2023-01-28T05:31:12.883Z,21.23
2023-01-28T05:33:41.972Z,20.98
2023-01-28T05:36:09.755Z,23.02
2023-01-28T05:38:37.458Z,22.55
2023-01-28T05:41:05.384Z,22.98
2023-01-28T05:43:33.067Z,23.33
2023-01-28T05:46:00.807Z,22.27
2023-01-28T05:48:28.611Z,21.90
2023-01-28T05:50:58.043Z,22.30
2023-01-28T05:53:25.765Z,20.77
2023-01-28T05:55:54.535Z,21.35
2023-01-28T05:58:22.668Z,21.42
2023-01-28T06:00:50.443Z,21.92
2023-01-28T06:03:18.198Z,22.40
2023-01-28T06:05:45.920Z,22.98
2023-01-28T06:08:15.074Z,21.98
2023-01-28T06:10:42.802Z,22.13
2023-01-28T06:13:10.452Z,23.38
2023-01-28T06:15:38.309Z,21.83
2023-01-28T06:18:06.081Z,21.88
2023-01-28T06:20:33.794Z,21.50
2023-01-28T06:23:01.483Z,22.65
2023-01-28T06:25:30.728Z,21.92
2023-01-28T06:27:58.495Z,20.60
2023-01-28T06:30:26.209Z,22.00
2023-01-28T06:32:57.443Z,24.23
2023-01-28T06:35:25.792Z,21.52
2023-01-28T06:37:53.952Z,23.23
2023-01-28T06:40:22.906Z,22.38
2023-01-28T06:42:52.023Z,21.30
2023-01-28T06:45:19.724Z,22.60
2023-01-28T06:47:47.452Z,22.92
2023-01-28T06:50:15.410Z,21.77
2023-01-28T06:52:43.276Z,22.45
2023-01-28T06:55:11.118Z,25.63
2023-01-28T06:57:39.601Z,23.30
2023-01-28T07:00:11.308Z,23.58
2023-01-28T07:02:39.115Z,21.95
2023-01-28T07:05:07.765Z,22.20
2023-01-28T07:07:35.444Z,23.52
2023-01-28T07:10:03.164Z,28.15
2023-01-28T07:12:30.909Z,21.10
2023-01-28T07:14:58.581Z,23.77
2023-01-28T07:17:27.711Z,24.75
2023-01-28T07:19:55.441Z,24.77
2023-01-28T07:22:23.153Z,21.75
2023-01-28T07:24:50.833Z,21.40
2023-01-28T07:27:18.541Z,22.27
2023-01-28T07:29:46.352Z,22.58
2023-01-28T07:32:14.073Z,24.98
2023-01-28T07:34:43.157Z,21.77
2023-01-28T07:37:11.112Z,20.23
2023-01-28T07:39:38.840Z,22.02
2023-01-28T07:42:06.822Z,22.17
2023-01-28T07:44:35.795Z,23.85
2023-01-28T07:47:04.019Z,21.27
2023-01-28T07:49:32.455Z,24.15
2023-01-28T07:52:01.631Z,21.75
2023-01-28T07:54:29.369Z,22.90
2023-01-28T07:56:57.041Z,22.20
2023-01-28T07:59:24.714Z,22.55
2023-01-28T08:01:54.942Z,22.92
2023-01-28T08:04:23.055Z,23.77
2023-01-28T08:06:52.293Z,26.30
2023-01-28T08:09:21.476Z,26.02
2023-01-28T08:11:49.199Z,23.48
2023-01-28T08:14:16.926Z,20.85
2023-01-28T08:16:44.638Z,21.80
2023-01-28T08:19:12.628Z,21.58
2023-01-28T08:21:40.391Z,21.42
2023-01-28T08:24:08.669Z,23.98
2023-01-28T08:26:37.969Z,22.33
2023-01-28T08:29:07.846Z,22.25
2023-01-28T08:31:35.758Z,21.25
2023-01-28T08:34:03.523Z,21.75
2023-01-28T08:36:31.214Z,22.50
2023-01-28T08:38:59.100Z,22.27
2023-01-28T08:41:26.896Z,22.33
2023-01-28T08:43:56.070Z,23.92
2023-01-28T08:46:23.853Z,22.45
2023-01-28T08:48:51.793Z,22.33
2023-01-28T08:51:19.512Z,21.45
2023-01-28T08:53:50.000Z,24.35
2023-01-28T08:56:17.696Z,24.63
2023-01-28T08:58:45.630Z,21.40
2023-01-28T09:01:14.747Z,21.85
2023-01-28T09:03:42.516Z,25.77
2023-01-28T09:06:10.315Z,21.35
2023-01-28T09:08:38.063Z,22.10
2023-01-28T09:11:06.037Z,22.33
2023-01-28T09:13:33.793Z,22.58
2023-01-28T09:16:01.684Z,22.88
2023-01-28T09:18:30.902Z,22.00
2023-01-28T09:20:58.628Z,25.98
2023-01-28T09:23:26.448Z,22.48
2023-01-28T09:26:01.427Z,23.25
2023-01-28T09:28:29.929Z,23.15
2023-01-28T09:31:03.072Z,21.30
2023-01-28T09:33:32.769Z,23.13
2023-01-28T09:36:01.735Z,22.75
2023-01-28T09:38:30.701Z,22.52
2023-01-28T09:41:02.316Z,26.38
2023-01-28T09:43:45.883Z,21.60
2023-01-28T09:46:15.676Z,22.15
2023-01-28T09:48:48.252Z,22.13
2023-01-28T09:51:28.258Z,21.23
2023-01-28T09:53:58.451Z,23.10
2023-01-28T09:56:30.116Z,21.88
2023-01-28T09:58:59.156Z,21.90
2023-01-28T10:01:40.097Z,22.90
2023-01-28T10:04:23.207Z,22.17
2023-01-28T10:07:02.136Z,21.77
2023-01-28T10:09:38.311Z,22.05
2023-01-28T10:12:17.285Z,22.88
2023-01-28T10:14:57.874Z,23.83
2023-01-28T10:17:30.019Z,22.80
2023-01-28T10:20:04.419Z,22.63
2023-01-28T10:22:36.611Z,21.73
2023-01-28T10:25:09.140Z,20.00
2023-01-28T10:27:38.334Z,20.42
2023-01-28T10:30:19.413Z,21.30
2023-01-28T10:32:52.712Z,25.77
2023-01-28T10:35:22.705Z,21.58
2023-01-28T10:37:51.232Z,22.92
2023-01-28T10:40:19.804Z,22.23
2023-01-28T10:42:47.532Z,24.58
2023-01-28T10:45:21.526Z,22.83
2023-01-28T10:47:54.584Z,23.45
2023-01-28T10:50:26.512Z,23.98
2023-01-28T10:52:55.939Z,22.92
2023-01-28T10:55:25.490Z,22.85
2023-01-28T10:57:54.638Z,24.38
2023-01-28T11:00:28.057Z,24.35
2023-01-28T11:02:58.873Z,26.67
2023-01-28T11:05:30.494Z,27.05
2023-01-28T11:08:06.252Z,25.10
2023-01-28T11:10:35.844Z,25.05
2023-01-28T11:13:05.822Z,27.92
2023-01-28T11:15:34.487Z,26.75
2023-01-28T11:18:06.132Z,27.63
2023-01-28T11:20:42.225Z,28.45
2023-01-28T11:23:20.640Z,26.35
2023-01-28T11:25:48.504Z,26.88
2023-01-28T11:28:21.797Z,27.70
2023-01-28T11:30:53.731Z,25.63
2023-01-28T11:33:24.614Z,27.48
2023-01-28T11:35:58.325Z,26.55
2023-01-28T11:38:27.303Z,27.42
2023-01-28T11:40:56.703Z,25.73
2023-01-28T11:43:26.881Z,29.00
2023-01-28T11:46:05.210Z,26.73
2023-01-28T11:48:42.951Z,24.92
2023-01-28T11:51:24.780Z,26.73
2023-01-28T11:54:18.728Z,25.87
2023-01-28T11:57:03.559Z,24.95
2023-01-28T11:59:43.833Z,24.92
2023-01-28T12:02:29.703Z,26.17
2023-01-28T12:05:15.913Z,25.23
2023-01-28T12:07:54.221Z,26.67
2023-01-28T12:10:30.281Z,26.25
2023-01-28T12:13:22.569Z,25.70
2023-01-28T12:16:15.341Z,24.45
2023-01-28T12:19:10.455Z,25.38
2023-01-28T12:21:49.403Z,23.17
2023-01-28T12:24:36.574Z,25.63
2023-01-28T12:27:11.764Z,25.90
2023-01-28T12:29:47.705Z,25.30
2023-01-28T12:32:39.194Z,26.15
2023-01-28T12:35:23.379Z,25.52
2023-01-28T12:38:03.068Z,26.25
2023-01-28T12:40:56.855Z,30.10
2023-01-28T12:43:39.738Z,44.30
2023-01-28T12:46:14.119Z,26.88
2023-01-28T12:48:47.251Z,40.13
2023-01-28T12:51:18.145Z,28.83
2023-01-28T12:53:53.648Z,30.70
2023-01-28T12:56:28.911Z,25.60
2023-01-28T12:58:59.901Z,26.58
2023-01-28T13:01:36.259Z,26.83
2023-01-28T13:04:10.395Z,26.92
2023-01-28T13:06:45.727Z,43.92
2023-01-28T13:09:18.703Z,27.58
2023-01-28T13:11:49.413Z,25.20
2023-01-28T13:14:17.985Z,27.10
2023-01-28T13:16:45.787Z,27.50
2023-01-28T13:19:24.750Z,25.83
2023-01-28T13:21:52.623Z,26.30
2023-01-28T13:24:24.175Z,27.40
2023-01-28T13:26:55.863Z,26.40
2023-01-28T13:29:31.275Z,20.10
2023-01-28T13:32:01.312Z,26.05
2023-01-28T13:34:37.796Z,26.00
2023-01-28T13:37:17.651Z,38.65
2023-01-28T13:39:50.814Z,26.88
2023-01-28T13:42:28.805Z,27.00
2023-01-28T13:44:57.239Z,25.00
2023-01-28T13:47:30.901Z,28.33
2023-01-28T13:50:04.527Z,35.08
2023-01-28T13:52:35.248Z,30.48
2023-01-28T13:55:07.478Z,28.95
2023-01-28T13:58:16.841Z,30.05
2023-01-28T14:01:09.357Z,29.63
2023-01-28T14:04:09.323Z,28.20
2023-01-28T14:06:54.952Z,27.88
2023-01-28T14:09:49.426Z,26.27
2023-01-28T14:12:39.116Z,25.23
2023-01-28T14:15:52.312Z,27.80
2023-01-28T14:18:27.795Z,28.27
2023-01-28T14:20:58.288Z,32.95
2023-01-28T14:23:26.824Z,44.35
2023-01-28T14:26:08.488Z,35.25
2023-01-28T14:28:45.342Z,32.22
2023-01-28T14:31:19.420Z,31.52
2023-01-28T14:33:48.785Z,30.02
2023-01-28T14:36:16.702Z,29.98
2023-01-28T14:38:46.055Z,51.35
2023-01-28T14:41:24.570Z,27.20
2023-01-28T14:43:54.095Z,30.00
2023-01-28T14:46:32.139Z,33.05
2023-01-28T14:49:17.267Z,30.45
2023-01-28T14:52:17.266Z,29.42
2023-01-28T14:55:01.455Z,29.90
2023-01-28T14:57:41.512Z,27.65
2023-01-28T15:00:22.415Z,30.58
2023-01-28T15:02:50.435Z,29.08
2023-01-28T15:05:22.073Z,29.45
2023-01-28T15:07:50.800Z,30.60
2023-01-28T15:10:22.199Z,29.70
2023-01-28T15:12:54.376Z,30.55
2023-01-28T15:15:30.454Z,32.05
2023-01-28T15:18:03.385Z,32.17
2023-01-28T15:20:33.320Z,31.73
2023-01-28T15:23:02.596Z,31.52
2023-01-28T15:25:31.234Z,31.17
2023-01-28T15:28:01.723Z,33.00
2023-01-28T15:30:31.517Z,31.27
2023-01-28T15:33:05.433Z,30.15
2023-01-28T15:35:36.802Z,32.50
2023-01-28T15:38:05.575Z,31.27
2023-01-28T15:40:43.330Z,30.77
2023-01-28T15:43:19.620Z,30.90
2023-01-28T15:45:49.081Z,30.73
2023-01-28T15:48:17.492Z,32.83
2023-01-28T15:50:46.976Z,34.47
2023-01-28T15:53:15.810Z,35.08
2023-01-28T15:55:45.359Z,34.90
2023-01-28T15:58:29.507Z,32.92
2023-01-28T16:01:05.600Z,37.92
2023-01-28T16:03:34.273Z,37.92
2023-01-28T16:06:08.545Z,35.78
2023-01-28T16:08:41.858Z,39.05
2023-01-28T16:13:44.050Z,34.63
2023-01-28T16:16:12.714Z,36.15
2023-01-28T16:18:43.371Z,38.78
2023-01-28T16:21:13.679Z,36.45
2023-01-28T16:23:41.535Z,38.70
2023-01-28T16:26:23.024Z,39.75
2023-01-28T16:28:50.727Z,37.10
2023-01-28T16:31:19.015Z,39.70
2023-01-28T16:33:47.053Z,38.58
2023-01-28T16:36:19.195Z,37.78
2023-01-28T16:38:47.289Z,44.15
2023-01-28T16:41:20.982Z,38.95
2023-01-28T16:43:48.677Z,36.83
2023-01-28T16:46:16.428Z,34.55
2023-01-28T16:48:44.147Z,39.22
2023-01-28T16:51:18.548Z,37.63
2023-01-28T16:53:47.826Z,40.10
2023-01-28T16:56:30.689Z,40.13
2023-01-28T16:59:04.876Z,40.05
2023-01-28T17:01:32.549Z,37.50
2023-01-28T17:04:00.265Z,41.75
2023-01-28T17:06:29.500Z,46.28
2023-01-28T17:08:57.185Z,43.00
2023-01-28T17:11:27.915Z,41.90
2023-01-28T17:13:55.616Z,44.35
2023-01-28T17:16:23.326Z,56.38
2023-01-28T17:18:56.055Z,49.28
2023-01-28T17:21:23.958Z,46.83
2023-01-28T17:23:53.189Z,45.03
2023-01-28T17:26:20.953Z,46.80
2023-01-28T17:28:53.475Z,52.53
2023-01-28T17:33:53.809Z,50.30
2023-01-28T17:36:21.527Z,54.53
2023-01-28T17:38:49.504Z,56.45
2023-01-28T17:41:18.989Z,53.33
2023-01-28T17:43:51.959Z,47.78
2023-01-28T17:46:20.491Z,46.67
2023-01-28T17:48:48.362Z,42.40
2023-01-28T17:51:17.176Z,47.63
2023-01-28T17:53:46.818Z,47.58
2023-01-28T17:56:20.534Z,55.53
2023-01-28T17:58:52.631Z,50.65
2023-01-28T18:01:20.869Z,50.35
2023-01-28T18:03:49.159Z,54.08
2023-01-28T18:06:17.724Z,53.90
2023-01-28T18:08:46.212Z,55.78
2023-01-28T18:11:15.981Z,59.08
2023-01-28T18:13:46.086Z,58.17
2023-01-28T18:16:16.268Z,58.28
2023-01-28T18:18:44.326Z,57.20
2023-01-28T18:21:42.984Z,62.15
2023-01-28T18:24:18.845Z,68.28
2023-01-28T18:26:46.654Z,62.72
2023-01-28T18:29:20.274Z,64.82
2023-01-28T18:31:48.897Z,61.63
2023-01-28T18:34:18.562Z,62.70
2023-01-28T18:36:46.315Z,64.35
2023-01-28T18:39:14.676Z,68.10
2023-01-28T18:41:42.424Z,66.75
2023-01-28T18:44:11.202Z,70.43
2023-01-28T18:46:40.550Z,66.85
2023-01-28T18:49:08.302Z,67.65
2023-01-28T18:51:36.041Z,66.32
2023-01-28T18:54:06.172Z,68.97
2023-01-28T18:56:35.054Z,71.60
2023-01-28T18:59:04.807Z,68.80
2023-01-28T19:01:35.419Z,65.00
2023-01-28T19:04:04.688Z,65.95
2023-01-28T19:06:33.362Z,72.97
2023-01-28T19:09:04.756Z,76.30
2023-01-28T19:11:32.773Z,73.03
2023-01-28T19:14:00.659Z,71.03
2023-01-28T19:16:28.806Z,77.97
2023-01-28T19:18:58.970Z,74.75
2023-01-28T19:21:28.910Z,74.38
2023-01-28T19:23:58.463Z,76.18
2023-01-28T19:26:27.883Z,84.28
2023-01-28T19:28:56.231Z,95.75
2023-01-28T19:31:25.495Z,99.18
2023-01-28T19:33:55.737Z,90.70
2023-01-28T19:36:23.765Z,99.32
2023-01-28T19:38:53.100Z,88.82
2023-01-28T19:41:20.812Z,85.88
2023-01-28T19:43:49.349Z,91.00
2023-01-28T19:46:18.186Z,94.00
2023-01-28T19:48:46.302Z,93.63
2023-01-28T19:51:15.840Z,85.35
2023-01-28T19:53:44.470Z,90.05
2023-01-28T19:56:14.846Z,84.28
2023-01-28T19:58:44.493Z,80.82
2023-01-28T20:01:14.098Z,92.35
2023-01-28T20:03:41.904Z,93.05
2023-01-28T20:06:12.513Z,86.38
2023-01-28T20:08:40.277Z,90.25
2023-01-28T20:11:09.769Z,92.57
2023-01-28T20:13:40.391Z,87.20
2023-01-28T20:16:10.517Z,85.10
2023-01-28T20:18:38.417Z,84.07
2023-01-28T20:21:06.283Z,78.38
2023-01-28T20:23:34.115Z,79.30
2023-01-28T20:26:02.296Z,84.50
2023-01-28T20:28:30.181Z,79.20
2023-01-28T20:31:05.969Z,82.25
2023-01-28T20:33:34.048Z,92.50
2023-01-28T20:36:03.003Z,88.75
2023-01-28T20:38:30.864Z,97.63
2023-01-28T20:40:58.554Z,97.80
2023-01-28T20:43:27.865Z,94.50
2023-01-28T20:46:04.736Z,85.25
2023-01-28T20:48:33.361Z,95.65
2023-01-28T20:51:06.471Z,92.18
2023-01-28T20:53:34.193Z,97.13
2023-01-28T20:56:02.305Z,97.57
2023-01-28T20:58:30.377Z,92.68
2023-01-28T21:00:58.124Z,96.25
2023-01-28T21:03:27.531Z,92.00
2023-01-28T21:05:55.251Z,95.53
2023-01-28T21:08:23.021Z,86.63
2023-01-28T21:10:50.759Z,91.70
2023-01-28T21:13:18.761Z,93.65
2023-01-28T21:15:54.148Z,105.32
2023-01-28T21:18:22.440Z,104.60
2023-01-28T21:20:51.613Z,106.50
2023-01-28T21:23:19.347Z,104.03
2023-01-28T21:25:47.763Z,96.35
2023-01-28T21:28:15.488Z,98.65
2023-01-28T21:30:43.474Z,101.97
2023-01-28T21:33:11.293Z,96.80
2023-01-28T21:35:39.741Z,103.32
2023-01-28T21:38:11.446Z,103.90
2023-01-28T21:40:46.770Z,82.45
2023-01-28T21:43:20.065Z,101.03
2023-01-28T21:45:55.164Z,98.82
2023-01-28T21:48:28.208Z,97.97
2023-01-28T21:51:14.156Z,94.32
2023-01-28T21:53:44.641Z,86.72
2023-01-28T21:56:12.958Z,98.30
2023-01-28T21:58:58.813Z,84.80
2023-01-28T22:01:28.670Z,99.57
2023-01-28T22:03:58.196Z,102.95
2023-01-28T22:06:26.361Z,113.95
2023-01-28T22:08:55.675Z,123.45
2023-01-28T22:11:23.413Z,141.63
2023-01-28T22:13:51.136Z,144.02
2023-01-28T22:16:19.259Z,125.70
2023-01-28T22:18:48.976Z,112.75
2023-01-28T22:21:16.926Z,117.07
2023-01-28T22:23:44.636Z,127.47
2023-01-28T22:26:15.347Z,117.25
2023-01-28T22:28:48.503Z,109.43
2023-01-28T22:31:17.854Z,110.82
2023-01-28T22:33:47.245Z,113.90
2023-01-28T22:36:16.547Z,98.30
2023-01-28T22:38:46.265Z,108.65
2023-01-28T22:41:19.115Z,94.68
2023-01-28T22:43:47.828Z,93.70
2023-01-28T22:46:16.732Z,93.05
2023-01-28T22:48:44.517Z,98.82
2023-01-28T22:51:16.430Z,94.68
2023-01-28T22:53:44.448Z,87.82
2023-01-28T22:56:12.470Z,96.65
2023-01-28T22:58:41.806Z,94.82
2023-01-28T23:01:09.625Z,87.35
2023-01-28T23:03:37.729Z,85.07
2023-01-28T23:06:07.572Z,95.45
2023-01-28T23:08:35.306Z,88.03
2023-01-28T23:11:15.318Z,76.45
2023-01-28T23:14:03.349Z,90.78
2023-01-28T23:16:49.629Z,90.55
2023-01-28T23:19:35.418Z,88.20
2023-01-28T23:22:21.116Z,87.05
2023-01-28T23:24:48.934Z,97.15
2023-01-28T23:27:16.789Z,90.43
2023-01-28T23:29:46.456Z,98.55
2023-01-28T23:32:14.236Z,94.53
2023-01-28T23:34:44.507Z,88.70
2023-01-28T23:37:13.930Z,87.95
2023-01-28T23:39:42.617Z,84.10
2023-01-28T23:42:12.397Z,91.15
2023-01-28T23:44:40.144Z,98.78
2023-01-28T23:47:10.075Z,97.53
2023-01-28T23:49:38.377Z,92.40
2023-01-28T23:52:07.257Z,96.03
2023-01-28T23:54:35.437Z,88.20
2023-01-28T23:57:03.868Z,89.53
2023-01-28T23:59:31.577Z,100.97
